Weather at Augusta Regional At Bush Field

Public forecast

Using degrees Fahrenheit for public forecast. Weather courtesy of forecast.io.

Current aviation weather report (METAR) for Augusta Regional At Bush Field

2024/05/19 19:53 (retrieved 25 minutes ago)

KAGS 191953Z AUTO 07010G17KT 040V100 10SM OVC028 24/18 A2990 RMK AO2 SLP122 T02440178

Aviation forecast (TAF) for Augusta Regional At Bush Field

2024/05/19 18:42 (retrieved 2 hours ago)

TAF KAGS 191739Z 1918/2018 04009KT P6SM SCT018 OVC025 FM192000 04008KT P6SM SCT025 OVC035 FM200200 VRB03KT P6SM SCT045 FM201200 05008KT P6SM SCT045